sensor_id;sensor_type;location;lat;lon;timestamp;P1;durP1;ratioP1;P2;durP2;ratioP2
23266;SDS011;11802;53.160;8.214;2023-01-01T00:01:57;14.43;;;6.82;;
23266;SDS011;11802;53.160;8.214;2023-01-01T00:04:22;19.02;;;6.97;;
23266;SDS011;11802;53.160;8.214;2023-01-01T00:06:48;20.23;;;6.97;;
23266;SDS011;11802;53.160;8.214;2023-01-01T00:09:13;13.45;;;5.53;;
23266;SDS011;11802;53.160;8.214;2023-01-01T00:11:57;12.10;;;5.53;;
23266;SDS011;11802;53.160;8.214;2023-01-01T00:14:23;15.93;;;5.57;;
23266;SDS011;11802;53.160;8.214;2023-01-01T00:16:48;11.67;;;5.23;;
23266;SDS011;11802;53.160;8.214;2023-01-01T00:19:14;15.68;;;5.43;;
23266;SDS011;11802;53.160;8.214;2023-01-01T00:21:39;12.40;;;5.45;;
23266;SDS011;11802;53.160;8.214;2023-01-01T00:24:05;13.80;;;5.45;;
23266;SDS011;11802;53.160;8.214;2023-01-01T00:26:31;14.48;;;5.25;;
23266;SDS011;11802;53.160;8.214;2023-01-01T00:28:56;12.82;;;5.60;;
23266;SDS011;11802;53.160;8.214;2023-01-01T00:31:22;12.85;;;5.03;;
23266;SDS011;11802;53.160;8.214;2023-01-01T00:33:52;11.20;;;5.70;;
23266;SDS011;11802;53.160;8.214;2023-01-01T00:36:19;13.63;;;5.50;;
23266;SDS011;11802;53.160;8.214;2023-01-01T00:38:47;15.70;;;5.30;;
23266;SDS011;11802;53.160;8.214;2023-01-01T00:41:13;14.10;;;5.13;;
23266;SDS011;11802;53.160;8.214;2023-01-01T00:43:39;11.40;;;5.55;;
23266;SDS011;11802;53.160;8.214;2023-01-01T00:46:05;15.80;;;6.40;;
23266;SDS011;11802;53.160;8.214;2023-01-01T00:48:32;17.83;;;6.70;;
23266;SDS011;11802;53.160;8.214;2023-01-01T00:50:58;13.95;;;6.38;;
23266;SDS011;11802;53.160;8.214;2023-01-01T00:53:23;15.93;;;6.70;;
23266;SDS011;11802;53.160;8.214;2023-01-01T00:55:49;17.25;;;6.32;;
23266;SDS011;11802;53.160;8.214;2023-01-01T00:58:17;15.32;;;6.72;;
23266;SDS011;11802;53.160;8.214;2023-01-01T01:00:43;19.13;;;7.32;;
23266;SDS011;11802;53.160;8.214;2023-01-01T01:03:10;16.58;;;7.43;;
23266;SDS011;11802;53.160;8.214;2023-01-01T01:05:52;17.48;;;6.93;;
23266;SDS011;11802;53.160;8.214;2023-01-01T01:08:21;14.80;;;6.37;;
23266;SDS011;11802;53.160;8.214;2023-01-01T01:10:47;13.82;;;6.22;;
23266;SDS011;11802;53.160;8.214;2023-01-01T01:13:12;14.20;;;6.88;;
23266;SDS011;11802;53.160;8.214;2023-01-01T01:15:38;15.50;;;7.18;;
23266;SDS011;11802;53.160;8.214;2023-01-01T01:18:03;17.33;;;7.38;;
23266;SDS011;11802;53.160;8.214;2023-01-01T01:20:29;12.40;;;7.38;;
23266;SDS011;11802;53.160;8.214;2023-01-01T01:22:54;16.08;;;7.68;;
23266;SDS011;11802;53.160;8.214;2023-01-01T01:25:20;15.95;;;7.10;;
23266;SDS011;11802;53.160;8.214;2023-01-01T01:27:45;18.45;;;8.30;;
23266;SDS011;11802;53.160;8.214;2023-01-01T01:30:11;21.17;;;7.97;;
23266;SDS011;11802;53.160;8.214;2023-01-01T01:32:37;19.88;;;8.38;;
23266;SDS011;11802;53.160;8.214;2023-01-01T01:35:02;18.02;;;8.70;;
23266;SDS011;11802;53.160;8.214;2023-01-01T01:37:28;12.10;;;7.30;;
23266;SDS011;11802;53.160;8.214;2023-01-01T01:39:53;17.58;;;9.25;;
23266;SDS011;11802;53.160;8.214;2023-01-01T01:42:19;17.67;;;8.82;;
23266;SDS011;11802;53.160;8.214;2023-01-01T01:47:14;16.85;;;10.18;;
23266;SDS011;11802;53.160;8.214;2023-01-01T01:49:43;19.43;;;9.53;;
23266;SDS011;11802;53.160;8.214;2023-01-01T01:52:09;17.43;;;9.60;;
23266;SDS011;11802;53.160;8.214;2023-01-01T01:54:36;18.47;;;9.60;;
23266;SDS011;11802;53.160;8.214;2023-01-01T01:57:03;17.77;;;10.93;;
23266;SDS011;11802;53.160;8.214;2023-01-01T01:59:32;21.75;;;12.35;;
23266;SDS011;11802;53.160;8.214;2023-01-01T02:02:02;18.17;;;10.90;;
23266;SDS011;11802;53.160;8.214;2023-01-01T02:04:31;21.80;;;11.98;;
23266;SDS011;11802;53.160;8.214;2023-01-01T02:06:58;17.85;;;10.68;;
23266;SDS011;11802;53.160;8.214;2023-01-01T02:09:24;21.65;;;11.88;;
23266;SDS011;11802;53.160;8.214;2023-01-01T02:11:50;19.27;;;11.37;;
23266;SDS011;11802;53.160;8.214;2023-01-01T02:14:16;18.33;;;11.48;;
23266;SDS011;11802;53.160;8.214;2023-01-01T02:16:59;23.88;;;11.02;;
23266;SDS011;11802;53.160;8.214;2023-01-01T02:19:36;22.15;;;11.45;;
23266;SDS011;11802;53.160;8.214;2023-01-01T02:22:31;21.38;;;12.32;;
23266;SDS011;11802;53.160;8.214;2023-01-01T02:25:22;19.98;;;11.95;;
23266;SDS011;11802;53.160;8.214;2023-01-01T02:28:05;22.38;;;12.35;;
23266;SDS011;11802;53.160;8.214;2023-01-01T02:30:47;19.50;;;11.57;;
23266;SDS011;11802;53.160;8.214;2023-01-01T02:33:17;19.23;;;10.90;;
23266;SDS011;11802;53.160;8.214;2023-01-01T02:35:48;19.70;;;12.68;;
23266;SDS011;11802;53.160;8.214;2023-01-01T02:38:30;22.57;;;13.93;;
23266;SDS011;11802;53.160;8.214;2023-01-01T02:41:02;20.08;;;11.88;;
23266;SDS011;11802;53.160;8.214;2023-01-01T02:43:34;22.30;;;11.77;;
23266;SDS011;11802;53.160;8.214;2023-01-01T02:46:04;21.20;;;10.40;;
23266;SDS011;11802;53.160;8.214;2023-01-01T02:48:50;20.55;;;11.30;;
23266;SDS011;11802;53.160;8.214;2023-01-01T02:56:46;16.23;;;9.97;;
23266;SDS011;11802;53.160;8.214;2023-01-01T02:59:15;18.57;;;9.93;;
23266;SDS011;11802;53.160;8.214;2023-01-01T03:02:31;15.67;;;8.60;;
23266;SDS011;11802;53.160;8.214;2023-01-01T03:05:18;17.10;;;9.80;;
23266;SDS011;11802;53.160;8.214;2023-01-01T03:08:45;18.00;;;8.85;;
23266;SDS011;11802;53.160;8.214;2023-01-01T03:11:18;17.52;;;8.57;;
23266;SDS011;11802;53.160;8.214;2023-01-01T03:16:45;15.37;;;7.93;;
23266;SDS011;11802;53.160;8.214;2023-01-01T03:19:15;20.40;;;8.53;;
23266;SDS011;11802;53.160;8.214;2023-01-01T03:22:03;16.67;;;8.10;;
23266;SDS011;11802;53.160;8.214;2023-01-01T03:27:26;17.33;;;8.00;;
23266;SDS011;11802;53.160;8.214;2023-01-01T03:29:56;20.53;;;6.87;;
23266;SDS011;11802;53.160;8.214;2023-01-01T03:32:27;16.10;;;7.30;;
23266;SDS011;11802;53.160;8.214;2023-01-01T03:35:17;14.13;;;6.90;;
23266;SDS011;11802;53.160;8.214;2023-01-01T03:37:46;15.70;;;7.00;;
23266;SDS011;11802;53.160;8.214;2023-01-01T03:40:14;17.10;;;7.70;;
23266;SDS011;11802;53.160;8.214;2023-01-01T03:42:45;16.10;;;7.17;;
23266;SDS011;11802;53.160;8.214;2023-01-01T03:45:24;15.87;;;7.33;;
23266;SDS011;11802;53.160;8.214;2023-01-01T03:47:53;12.33;;;6.60;;
23266;SDS011;11802;53.160;8.214;2023-01-01T03:50:20;14.63;;;6.80;;
23266;SDS011;11802;53.160;8.214;2023-01-01T03:53:02;12.10;;;6.17;;
23266;SDS011;11802;53.160;8.214;2023-01-01T03:55:40;11.80;;;6.10;;
23266;SDS011;11802;53.160;8.214;2023-01-01T03:58:20;13.90;;;6.13;;
23266;SDS011;11802;53.160;8.214;2023-01-01T04:01:03;16.83;;;7.60;;
23266;SDS011;11802;53.160;8.214;2023-01-01T04:03:38;14.18;;;7.20;;
23266;SDS011;11802;53.160;8.214;2023-01-01T04:06:05;17.17;;;8.07;;
23266;SDS011;11802;53.160;8.214;2023-01-01T04:08:32;16.50;;;7.70;;
23266;SDS011;11802;53.160;8.214;2023-01-01T04:10:59;13.15;;;6.47;;
23266;SDS011;11802;53.160;8.214;2023-01-01T04:13:50;17.90;;;7.33;;
23266;SDS011;11802;53.160;8.214;2023-01-01T04:16:15;13.93;;;5.83;;
23266;SDS011;11802;53.160;8.214;2023-01-01T04:18:41;13.53;;;5.43;;
23266;SDS011;11802;53.160;8.214;2023-01-01T04:21:06;16.73;;;5.83;;
23266;SDS011;11802;53.160;8.214;2023-01-01T04:23:32;14.33;;;4.77;;
23266;SDS011;11802;53.160;8.214;2023-01-01T04:25:57;13.13;;;5.77;;
23266;SDS011;11802;53.160;8.214;2023-01-01T04:28:22;11.97;;;5.90;;
23266;SDS011;11802;53.160;8.214;2023-01-01T04:30:48;13.37;;;5.00;;
23266;SDS011;11802;53.160;8.214;2023-01-01T04:33:13;14.47;;;4.70;;
23266;SDS011;11802;53.160;8.214;2023-01-01T04:35:39;8.17;;;3.87;;
23266;SDS011;11802;53.160;8.214;2023-01-01T04:38:04;13.40;;;4.67;;
23266;SDS011;11802;53.160;8.214;2023-01-01T04:40:30;9.83;;;4.10;;
23266;SDS011;11802;53.160;8.214;2023-01-01T04:42:56;10.00;;;4.67;;
23266;SDS011;11802;53.160;8.214;2023-01-01T04:45:21;7.63;;;3.97;;
23266;SDS011;11802;53.160;8.214;2023-01-01T04:47:47;7.40;;;3.58;;
23266;SDS011;11802;53.160;8.214;2023-01-01T04:50:12;9.13;;;3.58;;
23266;SDS011;11802;53.160;8.214;2023-01-01T04:52:38;8.67;;;3.50;;
23266;SDS011;11802;53.160;8.214;2023-01-01T04:55:03;11.23;;;3.58;;
23266;SDS011;11802;53.160;8.214;2023-01-01T04:57:29;6.95;;;2.97;;
23266;SDS011;11802;53.160;8.214;2023-01-01T04:59:55;8.93;;;3.40;;
23266;SDS011;11802;53.160;8.214;2023-01-01T05:02:21;5.95;;;2.53;;
23266;SDS011;11802;53.160;8.214;2023-01-01T05:04:46;9.95;;;3.08;;
23266;SDS011;11802;53.160;8.214;2023-01-01T05:07:12;10.40;;;3.00;;
23266;SDS011;11802;53.160;8.214;2023-01-01T05:09:37;9.60;;;3.13;;
23266;SDS011;11802;53.160;8.214;2023-01-01T05:12:03;7.30;;;2.77;;
23266;SDS011;11802;53.160;8.214;2023-01-01T05:14:29;8.98;;;2.95;;
23266;SDS011;11802;53.160;8.214;2023-01-01T05:16:54;9.55;;;2.97;;
23266;SDS011;11802;53.160;8.214;2023-01-01T05:19:20;5.80;;;2.33;;
23266;SDS011;11802;53.160;8.214;2023-01-01T05:21:46;8.10;;;2.90;;
23266;SDS011;11802;53.160;8.214;2023-01-01T05:24:11;6.88;;;2.63;;
23266;SDS011;11802;53.160;8.214;2023-01-01T05:26:38;8.67;;;2.90;;
23266;SDS011;11802;53.160;8.214;2023-01-01T05:29:05;8.77;;;2.43;;
23266;SDS011;11802;53.160;8.214;2023-01-01T05:31:32;8.40;;;2.70;;
23266;SDS011;11802;53.160;8.214;2023-01-01T05:34:00;6.13;;;2.53;;
23266;SDS011;11802;53.160;8.214;2023-01-01T05:36:28;6.50;;;2.40;;
23266;SDS011;11802;53.160;8.214;2023-01-01T05:38:56;10.93;;;2.40;;
23266;SDS011;11802;53.160;8.214;2023-01-01T05:41:22;8.70;;;2.28;;
23266;SDS011;11802;53.160;8.214;2023-01-01T05:43:48;8.85;;;2.55;;
23266;SDS011;11802;53.160;8.214;2023-01-01T05:46:16;9.30;;;2.20;;
23266;SDS011;11802;53.160;8.214;2023-01-01T05:48:44;10.27;;;2.37;;
23266;SDS011;11802;53.160;8.214;2023-01-01T05:51:11;5.83;;;2.20;;
23266;SDS011;11802;53.160;8.214;2023-01-01T05:53:38;8.03;;;2.20;;
23266;SDS011;11802;53.160;8.214;2023-01-01T05:56:04;6.43;;;2.22;;
23266;SDS011;11802;53.160;8.214;2023-01-01T05:58:31;8.97;;;2.43;;
23266;SDS011;11802;53.160;8.214;2023-01-01T06:01:03;8.67;;;2.37;;
23266;SDS011;11802;53.160;8.214;2023-01-01T06:03:32;10.13;;;2.87;;
23266;SDS011;11802;53.160;8.214;2023-01-01T06:06:01;7.10;;;2.42;;
23266;SDS011;11802;53.160;8.214;2023-01-01T06:08:27;6.10;;;1.97;;
23266;SDS011;11802;53.160;8.214;2023-01-01T06:10:57;5.87;;;2.17;;
23266;SDS011;11802;53.160;8.214;2023-01-01T06:13:23;7.47;;;2.20;;
23266;SDS011;11802;53.160;8.214;2023-01-01T06:15:52;7.03;;;2.30;;
23266;SDS011;11802;53.160;8.214;2023-01-01T06:18:22;7.83;;;2.43;;
23266;SDS011;11802;53.160;8.214;2023-01-01T06:20:48;8.00;;;1.90;;
23266;SDS011;11802;53.160;8.214;2023-01-01T06:23:13;8.70;;;2.47;;
23266;SDS011;11802;53.160;8.214;2023-01-01T06:25:39;5.73;;;2.00;;
23266;SDS011;11802;53.160;8.214;2023-01-01T06:28:05;11.30;;;2.60;;
23266;SDS011;11802;53.160;8.214;2023-01-01T06:30:30;6.18;;;1.88;;
23266;SDS011;11802;53.160;8.214;2023-01-01T06:32:58;7.00;;;1.97;;
23266;SDS011;11802;53.160;8.214;2023-01-01T06:35:24;4.32;;;1.48;;
23266;SDS011;11802;53.160;8.214;2023-01-01T06:37:49;8.15;;;2.33;;
23266;SDS011;11802;53.160;8.214;2023-01-01T06:40:15;6.03;;;2.00;;
23266;SDS011;11802;53.160;8.214;2023-01-01T06:42:40;6.10;;;1.70;;
23266;SDS011;11802;53.160;8.214;2023-01-01T06:45:06;5.33;;;1.83;;
23266;SDS011;11802;53.160;8.214;2023-01-01T06:47:33;6.87;;;1.57;;
23266;SDS011;11802;53.160;8.214;2023-01-01T06:49:59;5.57;;;2.17;;
23266;SDS011;11802;53.160;8.214;2023-01-01T06:52:25;8.10;;;1.80;;
23266;SDS011;11802;53.160;8.214;2023-01-01T06:54:51;5.80;;;1.40;;
23266;SDS011;11802;53.160;8.214;2023-01-01T06:57:17;5.23;;;1.93;;
23266;SDS011;11802;53.160;8.214;2023-01-01T06:59:44;5.47;;;1.37;;
23266;SDS011;11802;53.160;8.214;2023-01-01T07:02:09;4.95;;;1.67;;
23266;SDS011;11802;53.160;8.214;2023-01-01T07:04:36;3.33;;;1.23;;
23266;SDS011;11802;53.160;8.214;2023-01-01T07:07:02;4.75;;;1.40;;
23266;SDS011;11802;53.160;8.214;2023-01-01T07:09:28;6.10;;;1.50;;
23266;SDS011;11802;53.160;8.214;2023-01-01T07:11:53;6.00;;;1.85;;
23266;SDS011;11802;53.160;8.214;2023-01-01T07:14:19;4.90;;;1.80;;
23266;SDS011;11802;53.160;8.214;2023-01-01T07:16:44;3.07;;;1.30;;
23266;SDS011;11802;53.160;8.214;2023-01-01T07:19:10;5.57;;;1.40;;
23266;SDS011;11802;53.160;8.214;2023-01-01T07:21:42;7.90;;;1.43;;
23266;SDS011;11802;53.160;8.214;2023-01-01T07:24:10;7.10;;;1.77;;
23266;SDS011;11802;53.160;8.214;2023-01-01T07:26:37;4.90;;;1.70;;
23266;SDS011;11802;53.160;8.214;2023-01-01T07:29:03;2.60;;;1.20;;
23266;SDS011;11802;53.160;8.214;2023-01-01T07:31:29;3.77;;;1.17;;
23266;SDS011;11802;53.160;8.214;2023-01-01T07:33:55;8.37;;;1.50;;
23266;SDS011;11802;53.160;8.214;2023-01-01T07:36:20;3.43;;;1.20;;
23266;SDS011;11802;53.160;8.214;2023-01-01T07:38:46;5.00;;;1.40;;
23266;SDS011;11802;53.160;8.214;2023-01-01T07:41:11;6.83;;;1.57;;
23266;SDS011;11802;53.160;8.214;2023-01-01T07:43:37;6.30;;;1.33;;
23266;SDS011;11802;53.160;8.214;2023-01-01T07:46:02;4.10;;;1.30;;
23266;SDS011;11802;53.160;8.214;2023-01-01T07:48:28;5.00;;;1.40;;
23266;SDS011;11802;53.160;8.214;2023-01-01T07:50:54;3.30;;;1.10;;
23266;SDS011;11802;53.160;8.214;2023-01-01T07:53:19;10.27;;;1.80;;
23266;SDS011;11802;53.160;8.214;2023-01-01T07:55:45;5.00;;;1.33;;
23266;SDS011;11802;53.160;8.214;2023-01-01T07:58:11;5.43;;;1.47;;
23266;SDS011;11802;53.160;8.214;2023-01-01T08:00:37;4.83;;;1.20;;
23266;SDS011;11802;53.160;8.214;2023-01-01T08:03:03;3.13;;;1.30;;
23266;SDS011;11802;53.160;8.214;2023-01-01T08:05:29;2.87;;;1.10;;
23266;SDS011;11802;53.160;8.214;2023-01-01T08:07:55;3.87;;;1.20;;
23266;SDS011;11802;53.160;8.214;2023-01-01T08:10:20;3.73;;;1.50;;
23266;SDS011;11802;53.160;8.214;2023-01-01T08:12:46;3.77;;;1.20;;
23266;SDS011;11802;53.160;8.214;2023-01-01T08:15:12;6.00;;;1.70;;
23266;SDS011;11802;53.160;8.214;2023-01-01T08:17:38;2.87;;;1.07;;
23266;SDS011;11802;53.160;8.214;2023-01-01T08:20:04;7.75;;;1.67;;
23266;SDS011;11802;53.160;8.214;2023-01-01T08:22:31;4.37;;;1.37;;
23266;SDS011;11802;53.160;8.214;2023-01-01T08:24:56;7.47;;;1.10;;
23266;SDS011;11802;53.160;8.214;2023-01-01T08:27:22;4.67;;;1.30;;
23266;SDS011;11802;53.160;8.214;2023-01-01T08:29:47;3.77;;;1.37;;
23266;SDS011;11802;53.160;8.214;2023-01-01T08:32:13;5.07;;;1.97;;
23266;SDS011;11802;53.160;8.214;2023-01-01T08:34:38;8.07;;;1.30;;
23266;SDS011;11802;53.160;8.214;2023-01-01T08:37:04;3.97;;;1.30;;
23266;SDS011;11802;53.160;8.214;2023-01-01T08:39:30;7.00;;;1.57;;
23266;SDS011;11802;53.160;8.214;2023-01-01T08:41:56;3.80;;;1.27;;
23266;SDS011;11802;53.160;8.214;2023-01-01T08:44:22;5.13;;;1.10;;
23266;SDS011;11802;53.160;8.214;2023-01-01T08:46:47;3.40;;;1.10;;
23266;SDS011;11802;53.160;8.214;2023-01-01T08:49:13;10.70;;;2.10;;
23266;SDS011;11802;53.160;8.214;2023-01-01T08:51:38;4.97;;;1.73;;
23266;SDS011;11802;53.160;8.214;2023-01-01T08:54:04;5.67;;;1.37;;
23266;SDS011;11802;53.160;8.214;2023-01-01T08:56:30;10.87;;;3.57;;
23266;SDS011;11802;53.160;8.214;2023-01-01T08:58:56;9.33;;;2.70;;
23266;SDS011;11802;53.160;8.214;2023-01-01T09:01:21;6.67;;;3.27;;
23266;SDS011;11802;53.160;8.214;2023-01-01T09:03:50;6.93;;;1.73;;
23266;SDS011;11802;53.160;8.214;2023-01-01T09:06:15;9.90;;;3.70;;
23266;SDS011;11802;53.160;8.214;2023-01-01T09:08:41;13.63;;;3.97;;
23266;SDS011;11802;53.160;8.214;2023-01-01T09:11:06;8.80;;;3.33;;
23266;SDS011;11802;53.160;8.214;2023-01-01T09:13:39;11.10;;;3.50;;
23266;SDS011;11802;53.160;8.214;2023-01-01T09:16:04;8.97;;;3.13;;
23266;SDS011;11802;53.160;8.214;2023-01-01T09:18:30;7.00;;;2.33;;
23266;SDS011;11802;53.160;8.214;2023-01-01T09:20:56;8.87;;;2.57;;
23266;SDS011;11802;53.160;8.214;2023-01-01T09:23:21;6.07;;;2.07;;
23266;SDS011;11802;53.160;8.214;2023-01-01T09:25:47;8.33;;;2.27;;
23266;SDS011;11802;53.160;8.214;2023-01-01T09:28:12;9.03;;;2.33;;
23266;SDS011;11802;53.160;8.214;2023-01-01T09:30:38;9.63;;;2.33;;
23266;SDS011;11802;53.160;8.214;2023-01-01T09:33:04;14.30;;;3.43;;
23266;SDS011;11802;53.160;8.214;2023-01-01T09:35:30;5.00;;;1.30;;
23266;SDS011;11802;53.160;8.214;2023-01-01T09:37:55;8.07;;;1.83;;
23266;SDS011;11802;53.160;8.214;2023-01-01T09:40:33;9.33;;;2.83;;
23266;SDS011;11802;53.160;8.214;2023-01-01T09:43:24;11.00;;;2.93;;
23266;SDS011;11802;53.160;8.214;2023-01-01T09:46:13;8.00;;;2.03;;
23266;SDS011;11802;53.160;8.214;2023-01-01T09:48:40;7.30;;;1.73;;
23266;SDS011;11802;53.160;8.214;2023-01-01T09:51:16;6.97;;;2.13;;
23266;SDS011;11802;53.160;8.214;2023-01-01T09:56:20;5.57;;;1.83;;
23266;SDS011;11802;53.160;8.214;2023-01-01T09:58:51;8.77;;;1.93;;
23266;SDS011;11802;53.160;8.214;2023-01-01T10:07:13;4.43;;;1.27;;
23266;SDS011;11802;53.160;8.214;2023-01-01T10:09:49;5.07;;;1.13;;
23266;SDS011;11802;53.160;8.214;2023-01-01T10:12:46;7.00;;;1.30;;
23266;SDS011;11802;53.160;8.214;2023-01-01T10:15:30;4.60;;;1.17;;
23266;SDS011;11802;53.160;8.214;2023-01-01T10:18:02;9.43;;;1.23;;
23266;SDS011;11802;53.160;8.214;2023-01-01T10:20:37;4.70;;;1.20;;
23266;SDS011;11802;53.160;8.214;2023-01-01T10:23:17;5.82;;;1.55;;
23266;SDS011;11802;53.160;8.214;2023-01-01T10:25:49;7.57;;;1.30;;
23266;SDS011;11802;53.160;8.214;2023-01-01T10:28:18;5.35;;;1.30;;
23266;SDS011;11802;53.160;8.214;2023-01-01T10:31:40;7.43;;;1.42;;
23266;SDS011;11802;53.160;8.214;2023-01-01T10:33:57;8.80;;;1.37;;
23266;SDS011;11802;53.160;8.214;2023-01-01T10:36:23;6.00;;;1.30;;
23266;SDS011;11802;53.160;8.214;2023-01-01T10:38:49;5.93;;;1.20;;
23266;SDS011;11802;53.160;8.214;2023-01-01T10:41:15;6.93;;;1.10;;
23266;SDS011;11802;53.160;8.214;2023-01-01T10:43:41;8.67;;;1.50;;
23266;SDS011;11802;53.160;8.214;2023-01-01T10:46:09;10.73;;;1.30;;
23266;SDS011;11802;53.160;8.214;2023-01-01T10:48:37;4.83;;;1.07;;
23266;SDS011;11802;53.160;8.214;2023-01-01T10:51:04;9.33;;;1.30;;
23266;SDS011;11802;53.160;8.214;2023-01-01T10:53:33;6.07;;;1.10;;
23266;SDS011;11802;53.160;8.214;2023-01-01T10:56:05;8.20;;;2.07;;
23266;SDS011;11802;53.160;8.214;2023-01-01T10:58:39;8.03;;;1.87;;
23266;SDS011;11802;53.160;8.214;2023-01-01T11:01:19;9.67;;;1.40;;
23266;SDS011;11802;53.160;8.214;2023-01-01T11:03:53;8.83;;;2.13;;
23266;SDS011;11802;53.160;8.214;2023-01-01T11:06:30;7.30;;;1.57;;
23266;SDS011;11802;53.160;8.214;2023-01-01T11:11:58;8.23;;;1.80;;
23266;SDS011;11802;53.160;8.214;2023-01-01T11:14:30;6.37;;;1.10;;
23266;SDS011;11802;53.160;8.214;2023-01-01T11:17:02;7.13;;;1.50;;
23266;SDS011;11802;53.160;8.214;2023-01-01T11:19:29;4.83;;;1.00;;
23266;SDS011;11802;53.160;8.214;2023-01-01T11:22:03;4.67;;;1.30;;
23266;SDS011;11802;53.160;8.214;2023-01-01T11:24:30;6.77;;;1.10;;
23266;SDS011;11802;53.160;8.214;2023-01-01T11:29:46;7.33;;;1.47;;
23266;SDS011;11802;53.160;8.214;2023-01-01T11:32:15;11.27;;;1.43;;
23266;SDS011;11802;53.160;8.214;2023-01-01T11:34:47;10.20;;;1.50;;
23266;SDS011;11802;53.160;8.214;2023-01-01T11:37:25;7.67;;;1.60;;
23266;SDS011;11802;53.160;8.214;2023-01-01T11:39:54;5.80;;;1.47;;
23266;SDS011;11802;53.160;8.214;2023-01-01T11:42:22;7.87;;;1.47;;
23266;SDS011;11802;53.160;8.214;2023-01-01T11:47:30;7.43;;;1.37;;
23266;SDS011;11802;53.160;8.214;2023-01-01T11:50:01;7.47;;;1.37;;
23266;SDS011;11802;53.160;8.214;2023-01-01T11:52:47;3.90;;;1.00;;
23266;SDS011;11802;53.160;8.214;2023-01-01T11:55:35;5.73;;;1.33;;
23266;SDS011;11802;53.160;8.214;2023-01-01T12:00:54;8.60;;;1.60;;
23266;SDS011;11802;53.160;8.214;2023-01-01T12:06:10;5.70;;;1.37;;
23266;SDS011;11802;53.160;8.214;2023-01-01T12:08:49;9.23;;;1.77;;
23266;SDS011;11802;53.160;8.214;2023-01-01T12:14:24;8.80;;;1.97;;
23266;SDS011;11802;53.160;8.214;2023-01-01T12:17:02;10.03;;;2.57;;
23266;SDS011;11802;53.160;8.214;2023-01-01T12:19:35;10.27;;;2.90;;
23266;SDS011;11802;53.160;8.214;2023-01-01T12:22:07;8.20;;;1.90;;
23266;SDS011;11802;53.160;8.214;2023-01-01T12:24:40;8.20;;;1.50;;
23266;SDS011;11802;53.160;8.214;2023-01-01T12:41:07;9.93;;;2.53;;
23266;SDS011;11802;53.160;8.214;2023-01-01T12:46:39;8.90;;;1.63;;
23266;SDS011;11802;53.160;8.214;2023-01-01T12:50:14;8.70;;;1.93;;
23266;SDS011;11802;53.160;8.214;2023-01-01T12:55:00;10.90;;;1.57;;
23266;SDS011;11802;53.160;8.214;2023-01-01T12:58:07;9.70;;;2.37;;
23266;SDS011;11802;53.160;8.214;2023-01-01T13:00:40;6.17;;;2.03;;
23266;SDS011;11802;53.160;8.214;2023-01-01T13:03:10;7.73;;;1.70;;
23266;SDS011;11802;53.160;8.214;2023-01-01T13:05:50;12.43;;;1.93;;
23266;SDS011;11802;53.160;8.214;2023-01-01T13:08:19;11.73;;;1.90;;
23266;SDS011;11802;53.160;8.214;2023-01-01T13:10:45;11.43;;;1.67;;
23266;SDS011;11802;53.160;8.214;2023-01-01T13:13:14;7.53;;;1.40;;
23266;SDS011;11802;53.160;8.214;2023-01-01T13:15:42;10.97;;;1.57;;
23266;SDS011;11802;53.160;8.214;2023-01-01T13:20:38;8.47;;;1.70;;
23266;SDS011;11802;53.160;8.214;2023-01-01T13:23:51;9.27;;;1.60;;
23266;SDS011;11802;53.160;8.214;2023-01-01T13:32:22;9.30;;;1.70;;
23266;SDS011;11802;53.160;8.214;2023-01-01T13:45:26;10.20;;;1.50;;
23266;SDS011;11802;53.160;8.214;2023-01-01T13:48:13;11.43;;;1.50;;
23266;SDS011;11802;53.160;8.214;2023-01-01T13:56:53;8.97;;;1.87;;
23266;SDS011;11802;53.160;8.214;2023-01-01T14:04:54;14.50;;;2.03;;
23266;SDS011;11802;53.160;8.214;2023-01-01T14:10:19;9.07;;;2.13;;
23266;SDS011;11802;53.160;8.214;2023-01-01T14:12:52;8.77;;;2.40;;
23266;SDS011;11802;53.160;8.214;2023-01-01T14:15:34;9.17;;;1.90;;
23266;SDS011;11802;53.160;8.214;2023-01-01T14:18:03;7.70;;;1.70;;
23266;SDS011;11802;53.160;8.214;2023-01-01T14:20:44;7.27;;;1.97;;
23266;SDS011;11802;53.160;8.214;2023-01-01T14:23:58;15.03;;;2.60;;
23266;SDS011;11802;53.160;8.214;2023-01-01T14:25:59;11.70;;;2.37;;
23266;SDS011;11802;53.160;8.214;2023-01-01T14:28:30;12.33;;;2.90;;
23266;SDS011;11802;53.160;8.214;2023-01-01T14:30:59;12.90;;;2.30;;
23266;SDS011;11802;53.160;8.214;2023-01-01T14:33:28;9.57;;;2.23;;
23266;SDS011;11802;53.160;8.214;2023-01-01T14:35:56;12.03;;;2.77;;
23266;SDS011;11802;53.160;8.214;2023-01-01T14:38:30;8.97;;;2.00;;
23266;SDS011;11802;53.160;8.214;2023-01-01T14:41:05;10.00;;;2.57;;
23266;SDS011;11802;53.160;8.214;2023-01-01T14:43:36;11.43;;;2.30;;
23266;SDS011;11802;53.160;8.214;2023-01-01T14:46:04;11.23;;;2.00;;
23266;SDS011;11802;53.160;8.214;2023-01-01T14:48:31;8.67;;;1.60;;
23266;SDS011;11802;53.160;8.214;2023-01-01T14:50:57;10.77;;;2.17;;
23266;SDS011;11802;53.160;8.214;2023-01-01T14:53:27;9.50;;;2.40;;
23266;SDS011;11802;53.160;8.214;2023-01-01T14:55:56;16.87;;;2.70;;
23266;SDS011;11802;53.160;8.214;2023-01-01T14:58:22;11.67;;;2.43;;
23266;SDS011;11802;53.160;8.214;2023-01-01T15:00:52;9.80;;;2.10;;
23266;SDS011;11802;53.160;8.214;2023-01-01T15:03:18;8.03;;;2.27;;
23266;SDS011;11802;53.160;8.214;2023-01-01T15:05:56;12.23;;;2.27;;
23266;SDS011;11802;53.160;8.214;2023-01-01T15:08:23;8.27;;;2.10;;
23266;SDS011;11802;53.160;8.214;2023-01-01T15:10:50;11.83;;;2.33;;
23266;SDS011;11802;53.160;8.214;2023-01-01T15:13:18;6.43;;;2.00;;
23266;SDS011;11802;53.160;8.214;2023-01-01T15:15:52;12.97;;;2.73;;
23266;SDS011;11802;53.160;8.214;2023-01-01T15:21:13;11.37;;;2.23;;
23266;SDS011;11802;53.160;8.214;2023-01-01T15:23:47;10.03;;;2.43;;
23266;SDS011;11802;53.160;8.214;2023-01-01T15:29:06;12.70;;;2.10;;
23266;SDS011;11802;53.160;8.214;2023-01-01T15:31:39;13.27;;;2.40;;
23266;SDS011;11802;53.160;8.214;2023-01-01T15:34:14;7.27;;;2.23;;
23266;SDS011;11802;53.160;8.214;2023-01-01T15:36:49;10.23;;;2.30;;
23266;SDS011;11802;53.160;8.214;2023-01-01T15:39:17;8.50;;;2.70;;
23266;SDS011;11802;53.160;8.214;2023-01-01T15:41:44;13.73;;;2.60;;
23266;SDS011;11802;53.160;8.214;2023-01-01T15:44:15;12.50;;;3.27;;
23266;SDS011;11802;53.160;8.214;2023-01-01T15:46:50;9.27;;;2.63;;
23266;SDS011;11802;53.160;8.214;2023-01-01T15:49:26;11.03;;;2.83;;
23266;SDS011;11802;53.160;8.214;2023-01-01T15:51:54;12.33;;;2.90;;
23266;SDS011;11802;53.160;8.214;2023-01-01T15:54:25;8.57;;;3.03;;
23266;SDS011;11802;53.160;8.214;2023-01-01T15:56:52;14.03;;;2.73;;
23266;SDS011;11802;53.160;8.214;2023-01-01T15:59:25;14.47;;;3.50;;
23266;SDS011;11802;53.160;8.214;2023-01-01T16:02:00;11.10;;;2.93;;
23266;SDS011;11802;53.160;8.214;2023-01-01T16:04:54;11.27;;;3.07;;
23266;SDS011;11802;53.160;8.214;2023-01-01T16:07:20;10.30;;;3.03;;
23266;SDS011;11802;53.160;8.214;2023-01-01T16:09:51;10.43;;;3.07;;
23266;SDS011;11802;53.160;8.214;2023-01-01T16:12:17;10.30;;;2.87;;
23266;SDS011;11802;53.160;8.214;2023-01-01T16:14:43;10.77;;;3.07;;
23266;SDS011;11802;53.160;8.214;2023-01-01T16:17:19;10.60;;;3.83;;
23266;SDS011;11802;53.160;8.214;2023-01-01T16:19:45;15.50;;;3.70;;
23266;SDS011;11802;53.160;8.214;2023-01-01T16:22:15;10.70;;;3.43;;
23266;SDS011;11802;53.160;8.214;2023-01-01T16:24:42;14.17;;;4.57;;
23266;SDS011;11802;53.160;8.214;2023-01-01T16:27:09;8.67;;;2.93;;
23266;SDS011;11802;53.160;8.214;2023-01-01T16:29:35;13.10;;;3.60;;
23266;SDS011;11802;53.160;8.214;2023-01-01T16:32:01;13.07;;;4.10;;
23266;SDS011;11802;53.160;8.214;2023-01-01T16:34:27;9.97;;;3.30;;
23266;SDS011;11802;53.160;8.214;2023-01-01T16:36:52;10.70;;;3.50;;